sensor_id;sensor_type;location;lat;lon;timestamp;temperature;humidity
65058;HTU21D;51644;51.068;5.860;2022-11-20T00:00:29;5.61;74.41
65058;HTU21D;51644;51.068;5.860;2022-11-20T00:01:28;5.62;74.55
65058;HTU21D;51644;51.068;5.860;2022-11-20T00:02:26;5.61;74.69
65058;HTU21D;51644;51.068;5.860;2022-11-20T00:03:25;5.61;74.78
65058;HTU21D;51644;51.068;5.860;2022-11-20T00:04:24;5.61;74.91
65058;HTU21D;51644;51.068;5.860;2022-11-20T00:05:22;5.62;75.05
65058;HTU21D;51644;51.068;5.860;2022-11-20T00:06:42;5.63;75.05
65058;HTU21D;51644;51.068;5.860;2022-11-20T00:07:49;5.64;75.15
65058;HTU21D;51644;51.068;5.860;2022-11-20T00:08:58;5.65;75.21
65058;HTU21D;51644;51.068;5.860;2022-11-20T00:10:03;5.66;74.92
65058;HTU21D;51644;51.068;5.860;2022-11-20T00:12:06;5.65;74.71
65058;HTU21D;51644;51.068;5.860;2022-11-20T00:13:06;5.68;74.78
65058;HTU21D;51644;51.068;5.860;2022-11-20T00:14:16;5.68;75.03
65058;HTU21D;51644;51.068;5.860;2022-11-20T00:15:15;5.70;75.12
65058;HTU21D;51644;51.068;5.860;2022-11-20T00:16:16;5.71;75.30
65058;HTU21D;51644;51.068;5.860;2022-11-20T00:17:15;5.70;75.27
65058;HTU21D;51644;51.068;5.860;2022-11-20T00:18:13;5.71;75.36
65058;HTU21D;51644;51.068;5.860;2022-11-20T00:19:14;5.72;75.29
65058;HTU21D;51644;51.068;5.860;2022-11-20T00:20:13;5.71;75.08
65058;HTU21D;51644;51.068;5.860;2022-11-20T00:21:15;5.71;75.02
65058;HTU21D;51644;51.068;5.860;2022-11-20T00:22:14;5.72;75.12
65058;HTU21D;51644;51.068;5.860;2022-11-20T00:23:13;5.71;75.35
65058;HTU21D;51644;51.068;5.860;2022-11-20T00:24:12;5.70;75.57
65058;HTU21D;51644;51.068;5.860;2022-11-20T00:25:26;5.68;75.79
65058;HTU21D;51644;51.068;5.860;2022-11-20T00:26:26;5.65;75.91
65058;HTU21D;51644;51.068;5.860;2022-11-20T00:27:30;5.65;76.00
65058;HTU21D;51644;51.068;5.860;2022-11-20T00:28:29;5.64;76.02
65058;HTU21D;51644;51.068;5.860;2022-11-20T00:29:27;5.65;76.05
65058;HTU21D;51644;51.068;5.860;2022-11-20T00:30:26;5.66;76.15
65058;HTU21D;51644;51.068;5.860;2022-11-20T00:31:25;5.66;76.10
65058;HTU21D;51644;51.068;5.860;2022-11-20T00:32:24;5.65;75.93
65058;HTU21D;51644;51.068;5.860;2022-11-20T00:33:22;5.67;75.79
65058;HTU21D;51644;51.068;5.860;2022-11-20T00:34:21;5.66;75.85
65058;HTU21D;51644;51.068;5.860;2022-11-20T00:35:19;5.67;75.78
65058;HTU21D;51644;51.068;5.860;2022-11-20T00:36:21;5.66;75.65
65058;HTU21D;51644;51.068;5.860;2022-11-20T00:37:20;5.65;75.50
65058;HTU21D;51644;51.068;5.860;2022-11-20T00:38:18;5.64;75.30
65058;HTU21D;51644;51.068;5.860;2022-11-20T00:39:17;5.63;75.08
65058;HTU21D;51644;51.068;5.860;2022-11-20T00:40:16;5.61;75.06
65058;HTU21D;51644;51.068;5.860;2022-11-20T00:41:16;5.57;75.12
65058;HTU21D;51644;51.068;5.860;2022-11-20T00:42:14;5.56;75.21
65058;HTU21D;51644;51.068;5.860;2022-11-20T00:43:13;5.55;75.28
65058;HTU21D;51644;51.068;5.860;2022-11-20T00:44:11;5.55;75.22
65058;HTU21D;51644;51.068;5.860;2022-11-20T00:45:10;5.55;75.24
65058;HTU21D;51644;51.068;5.860;2022-11-20T00:46:13;5.56;75.31
65058;HTU21D;51644;51.068;5.860;2022-11-20T00:47:12;5.56;75.39
65058;HTU21D;51644;51.068;5.860;2022-11-20T00:48:10;5.55;75.25
65058;HTU21D;51644;51.068;5.860;2022-11-20T00:49:09;5.55;75.22
65058;HTU21D;51644;51.068;5.860;2022-11-20T00:50:08;5.54;75.21
65058;HTU21D;51644;51.068;5.860;2022-11-20T00:51:07;5.54;75.15
65058;HTU21D;51644;51.068;5.860;2022-11-20T00:52:05;5.54;75.20
65058;HTU21D;51644;51.068;5.860;2022-11-20T00:53:04;5.54;75.21
65058;HTU21D;51644;51.068;5.860;2022-11-20T00:54:02;5.51;75.18
65058;HTU21D;51644;51.068;5.860;2022-11-20T00:55:01;5.50;75.11
65058;HTU21D;51644;51.068;5.860;2022-11-20T00:56:05;5.49;75.05
65058;HTU21D;51644;51.068;5.860;2022-11-20T00:57:04;5.49;75.12
65058;HTU21D;51644;51.068;5.860;2022-11-20T00:58:02;5.50;75.21
65058;HTU21D;51644;51.068;5.860;2022-11-20T00:59:01;5.48;75.16
65058;HTU21D;51644;51.068;5.860;2022-11-20T01:00:00;5.48;75.18
65058;HTU21D;51644;51.068;5.860;2022-11-20T01:01:14;5.47;75.21
65058;HTU21D;51644;51.068;5.860;2022-11-20T01:02:13;5.46;75.15
65058;HTU21D;51644;51.068;5.860;2022-11-20T01:03:13;5.43;75.09
65058;HTU21D;51644;51.068;5.860;2022-11-20T01:04:12;5.46;75.05
65058;HTU21D;51644;51.068;5.860;2022-11-20T01:05:10;5.45;74.94
65058;HTU21D;51644;51.068;5.860;2022-11-20T01:06:13;5.48;74.97
65058;HTU21D;51644;51.068;5.860;2022-11-20T01:07:12;5.47;75.18
65058;HTU21D;51644;51.068;5.860;2022-11-20T01:08:11;5.49;75.34
65058;HTU21D;51644;51.068;5.860;2022-11-20T01:09:13;5.50;75.49
65058;HTU21D;51644;51.068;5.860;2022-11-20T01:10:11;5.50;75.53
65058;HTU21D;51644;51.068;5.860;2022-11-20T01:11:21;5.50;75.64
65058;HTU21D;51644;51.068;5.860;2022-11-20T01:12:21;5.51;75.43
65058;HTU21D;51644;51.068;5.860;2022-11-20T01:13:27;5.50;75.30
65058;HTU21D;51644;51.068;5.860;2022-11-20T01:14:39;5.48;75.05
65058;HTU21D;51644;51.068;5.860;2022-11-20T01:15:38;5.49;74.95
65058;HTU21D;51644;51.068;5.860;2022-11-20T01:16:47;5.49;74.81
65058;HTU21D;51644;51.068;5.860;2022-11-20T01:17:46;5.50;74.70
65058;HTU21D;51644;51.068;5.860;2022-11-20T01:18:51;5.50;74.71
65058;HTU21D;51644;51.068;5.860;2022-11-20T01:20:05;5.50;74.55
65058;HTU21D;51644;51.068;5.860;2022-11-20T01:21:07;5.50;74.62
65058;HTU21D;51644;51.068;5.860;2022-11-20T01:22:06;5.47;74.85
65058;HTU21D;51644;51.068;5.860;2022-11-20T01:23:04;5.45;75.06
65058;HTU21D;51644;51.068;5.860;2022-11-20T01:24:06;5.43;75.18
65058;HTU21D;51644;51.068;5.860;2022-11-20T01:25:06;5.43;75.25
65058;HTU21D;51644;51.068;5.860;2022-11-20T01:26:08;5.43;75.25
65058;HTU21D;51644;51.068;5.860;2022-11-20T01:27:07;5.43;75.29
65058;HTU21D;51644;51.068;5.860;2022-11-20T01:28:06;5.45;75.34
65058;HTU21D;51644;51.068;5.860;2022-11-20T01:29:05;5.46;75.45
65058;HTU21D;51644;51.068;5.860;2022-11-20T01:30:04;5.46;75.60
65058;HTU21D;51644;51.068;5.860;2022-11-20T01:31:13;5.47;75.66
65058;HTU21D;51644;51.068;5.860;2022-11-20T01:32:12;5.50;75.54
65058;HTU21D;51644;51.068;5.860;2022-11-20T01:33:11;5.49;75.43
65058;HTU21D;51644;51.068;5.860;2022-11-20T01:34:13;5.49;75.38
65058;HTU21D;51644;51.068;5.860;2022-11-20T01:35:12;5.50;75.24
65058;HTU21D;51644;51.068;5.860;2022-11-20T01:36:12;5.48;75.06
65058;HTU21D;51644;51.068;5.860;2022-11-20T01:37:13;5.46;75.08
65058;HTU21D;51644;51.068;5.860;2022-11-20T01:38:12;5.45;75.21
65058;HTU21D;51644;51.068;5.860;2022-11-20T01:39:14;5.42;75.18
65058;HTU21D;51644;51.068;5.860;2022-11-20T01:40:15;5.42;75.15
65058;HTU21D;51644;51.068;5.860;2022-11-20T01:41:15;5.40;75.16
65058;HTU21D;51644;51.068;5.860;2022-11-20T01:42:34;5.36;75.36
65058;HTU21D;51644;51.068;5.860;2022-11-20T01:43:51;5.34;75.55
65058;HTU21D;51644;51.068;5.860;2022-11-20T01:44:51;5.32;75.75
65058;HTU21D;51644;51.068;5.860;2022-11-20T01:47:04;5.30;76.11
65058;HTU21D;51644;51.068;5.860;2022-11-20T01:48:04;5.26;76.24
65058;HTU21D;51644;51.068;5.860;2022-11-20T01:50:27;5.20;76.64
65058;HTU21D;51644;51.068;5.860;2022-11-20T01:51:46;5.18;76.86
65058;HTU21D;51644;51.068;5.860;2022-11-20T01:53:02;5.18;76.98
65058;HTU21D;51644;51.068;5.860;2022-11-20T01:54:06;5.16;77.10
65058;HTU21D;51644;51.068;5.860;2022-11-20T01:55:14;5.15;77.27
65058;HTU21D;51644;51.068;5.860;2022-11-20T01:56:14;5.15;77.45
65058;HTU21D;51644;51.068;5.860;2022-11-20T01:57:15;5.13;77.67
65058;HTU21D;51644;51.068;5.860;2022-11-20T01:58:32;5.12;77.74
65058;HTU21D;51644;51.068;5.860;2022-11-20T01:59:33;5.12;77.47
65058;HTU21D;51644;51.068;5.860;2022-11-20T02:00:48;5.12;77.44
65058;HTU21D;51644;51.068;5.860;2022-11-20T02:01:49;5.13;77.55
65058;HTU21D;51644;51.068;5.860;2022-11-20T02:02:53;5.13;77.69
65058;HTU21D;51644;51.068;5.860;2022-11-20T02:03:54;5.13;77.72
65058;HTU21D;51644;51.068;5.860;2022-11-20T02:04:56;5.15;77.70
65058;HTU21D;51644;51.068;5.860;2022-11-20T02:07:09;5.10;77.85
65058;HTU21D;51644;51.068;5.860;2022-11-20T02:08:08;5.08;77.92
65058;HTU21D;51644;51.068;5.860;2022-11-20T02:09:07;5.08;77.94
65058;HTU21D;51644;51.068;5.860;2022-11-20T02:10:05;5.07;78.06
65058;HTU21D;51644;51.068;5.860;2022-11-20T02:11:07;5.05;78.14
65058;HTU21D;51644;51.068;5.860;2022-11-20T02:12:06;5.03;78.23
65058;HTU21D;51644;51.068;5.860;2022-11-20T02:13:25;5.02;78.41
65058;HTU21D;51644;51.068;5.860;2022-11-20T02:14:42;5.05;78.52
65058;HTU21D;51644;51.068;5.860;2022-11-20T02:15:44;5.02;78.51
65058;HTU21D;51644;51.068;5.860;2022-11-20T02:16:48;5.02;78.64
65058;HTU21D;51644;51.068;5.860;2022-11-20T02:17:48;5.02;78.70
65058;HTU21D;51644;51.068;5.860;2022-11-20T02:18:51;5.01;78.76
65058;HTU21D;51644;51.068;5.860;2022-11-20T02:19:50;5.03;78.81
65058;HTU21D;51644;51.068;5.860;2022-11-20T02:20:56;5.02;78.88
65058;HTU21D;51644;51.068;5.860;2022-11-20T02:22:28;5.01;78.88
65058;HTU21D;51644;51.068;5.860;2022-11-20T02:24:54;4.98;78.95
65058;HTU21D;51644;51.068;5.860;2022-11-20T02:25:55;4.98;79.00
65058;HTU21D;51644;51.068;5.860;2022-11-20T02:27:06;5.01;79.15
65058;HTU21D;51644;51.068;5.860;2022-11-20T02:28:05;5.03;79.10
65058;HTU21D;51644;51.068;5.860;2022-11-20T02:29:04;5.04;79.11
65058;HTU21D;51644;51.068;5.860;2022-11-20T02:30:06;5.06;79.09
65058;HTU21D;51644;51.068;5.860;2022-11-20T02:31:09;5.07;79.08
65058;HTU21D;51644;51.068;5.860;2022-11-20T02:32:28;5.11;78.97
65058;HTU21D;51644;51.068;5.860;2022-11-20T02:33:27;5.12;78.95
65058;HTU21D;51644;51.068;5.860;2022-11-20T02:34:25;5.16;78.83
65058;HTU21D;51644;51.068;5.860;2022-11-20T02:36:26;5.18;78.79
65058;HTU21D;51644;51.068;5.860;2022-11-20T02:37:30;5.19;78.57
65058;HTU21D;51644;51.068;5.860;2022-11-20T02:38:31;5.18;78.46
65058;HTU21D;51644;51.068;5.860;2022-11-20T02:39:30;5.15;78.34
65058;HTU21D;51644;51.068;5.860;2022-11-20T02:40:29;5.11;78.33
65058;HTU21D;51644;51.068;5.860;2022-11-20T02:41:36;5.07;78.32
65058;HTU21D;51644;51.068;5.860;2022-11-20T02:42:36;5.05;78.40
65058;HTU21D;51644;51.068;5.860;2022-11-20T02:43:34;5.02;78.47
65058;HTU21D;51644;51.068;5.860;2022-11-20T02:44:33;5.00;78.52
65058;HTU21D;51644;51.068;5.860;2022-11-20T02:45:32;4.98;78.56
65058;HTU21D;51644;51.068;5.860;2022-11-20T02:46:32;4.95;78.68
65058;HTU21D;51644;51.068;5.860;2022-11-20T02:47:31;4.94;78.74
65058;HTU21D;51644;51.068;5.860;2022-11-20T02:48:30;4.96;78.78
65058;HTU21D;51644;51.068;5.860;2022-11-20T02:49:29;4.96;78.76
65058;HTU21D;51644;51.068;5.860;2022-11-20T02:50:27;4.96;78.75
65058;HTU21D;51644;51.068;5.860;2022-11-20T02:51:30;5.00;78.69
65058;HTU21D;51644;51.068;5.860;2022-11-20T02:52:28;5.00;78.66
65058;HTU21D;51644;51.068;5.860;2022-11-20T02:53:27;5.00;78.64
65058;HTU21D;51644;51.068;5.860;2022-11-20T02:54:25;4.98;78.67
65058;HTU21D;51644;51.068;5.860;2022-11-20T02:55:24;4.97;78.63
65058;HTU21D;51644;51.068;5.860;2022-11-20T02:56:23;4.96;78.67
65058;HTU21D;51644;51.068;5.860;2022-11-20T02:57:22;4.95;78.72
65058;HTU21D;51644;51.068;5.860;2022-11-20T02:58:20;4.95;78.70
65058;HTU21D;51644;51.068;5.860;2022-11-20T02:59:19;4.92;78.64
65058;HTU21D;51644;51.068;5.860;2022-11-20T03:00:18;4.90;78.71
65058;HTU21D;51644;51.068;5.860;2022-11-20T03:01:17;4.90;78.69
65058;HTU21D;51644;51.068;5.860;2022-11-20T03:02:15;4.89;78.72
65058;HTU21D;51644;51.068;5.860;2022-11-20T03:03:14;4.89;78.74
65058;HTU21D;51644;51.068;5.860;2022-11-20T03:04:12;4.90;78.78
65058;HTU21D;51644;51.068;5.860;2022-11-20T03:05:11;4.91;78.66
65058;HTU21D;51644;51.068;5.860;2022-11-20T03:06:10;4.92;78.61
65058;HTU21D;51644;51.068;5.860;2022-11-20T03:07:09;4.92;78.63
65058;HTU21D;51644;51.068;5.860;2022-11-20T03:08:08;4.91;78.66
65058;HTU21D;51644;51.068;5.860;2022-11-20T03:09:06;4.89;78.71
65058;HTU21D;51644;51.068;5.860;2022-11-20T03:10:05;4.87;78.82
65058;HTU21D;51644;51.068;5.860;2022-11-20T03:11:06;4.87;78.92
65058;HTU21D;51644;51.068;5.860;2022-11-20T03:12:06;4.88;78.85
65058;HTU21D;51644;51.068;5.860;2022-11-20T03:13:04;4.89;78.75
65058;HTU21D;51644;51.068;5.860;2022-11-20T03:14:04;4.90;78.74
65058;HTU21D;51644;51.068;5.860;2022-11-20T03:15:06;4.91;78.72
65058;HTU21D;51644;51.068;5.860;2022-11-20T03:16:07;4.90;78.76
65058;HTU21D;51644;51.068;5.860;2022-11-20T03:17:06;4.88;78.72
65058;HTU21D;51644;51.068;5.860;2022-11-20T03:18:05;4.88;78.75
65058;HTU21D;51644;51.068;5.860;2022-11-20T03:19:03;4.87;78.79
65058;HTU21D;51644;51.068;5.860;2022-11-20T03:20:02;4.87;78.84
65058;HTU21D;51644;51.068;5.860;2022-11-20T03:21:00;4.88;78.88
65058;HTU21D;51644;51.068;5.860;2022-11-20T03:22:00;4.90;78.92
65058;HTU21D;51644;51.068;5.860;2022-11-20T03:22:58;4.90;78.94
65058;HTU21D;51644;51.068;5.860;2022-11-20T03:23:57;4.91;78.92
65058;HTU21D;51644;51.068;5.860;2022-11-20T03:24:56;4.90;78.85
65058;HTU21D;51644;51.068;5.860;2022-11-20T03:25:54;4.91;78.82
65058;HTU21D;51644;51.068;5.860;2022-11-20T03:26:53;4.90;78.78
65058;HTU21D;51644;51.068;5.860;2022-11-20T03:27:51;4.91;78.76
65058;HTU21D;51644;51.068;5.860;2022-11-20T03:29:06;4.94;78.75
65058;HTU21D;51644;51.068;5.860;2022-11-20T03:30:09;4.95;78.76
65058;HTU21D;51644;51.068;5.860;2022-11-20T03:31:13;4.95;78.83
65058;HTU21D;51644;51.068;5.860;2022-11-20T03:32:12;4.96;78.89
65058;HTU21D;51644;51.068;5.860;2022-11-20T03:33:11;4.97;78.96
65058;HTU21D;51644;51.068;5.860;2022-11-20T03:34:12;4.97;79.01
65058;HTU21D;51644;51.068;5.860;2022-11-20T03:35:11;4.98;79.07
65058;HTU21D;51644;51.068;5.860;2022-11-20T03:36:12;4.97;79.01
65058;HTU21D;51644;51.068;5.860;2022-11-20T03:37:12;5.00;79.01
65058;HTU21D;51644;51.068;5.860;2022-11-20T03:38:10;4.98;78.92
65058;HTU21D;51644;51.068;5.860;2022-11-20T03:39:09;4.97;78.83
65058;HTU21D;51644;51.068;5.860;2022-11-20T03:40:11;4.96;78.80
65058;HTU21D;51644;51.068;5.860;2022-11-20T03:41:12;4.95;78.81
65058;HTU21D;51644;51.068;5.860;2022-11-20T03:42:11;4.95;78.79
65058;HTU21D;51644;51.068;5.860;2022-11-20T03:43:28;4.94;78.88
65058;HTU21D;51644;51.068;5.860;2022-11-20T03:44:27;4.94;78.85
65058;HTU21D;51644;51.068;5.860;2022-11-20T03:45:26;4.94;78.89
65058;HTU21D;51644;51.068;5.860;2022-11-20T03:46:26;4.94;78.88
65058;HTU21D;51644;51.068;5.860;2022-11-20T03:47:25;4.92;78.94
65058;HTU21D;51644;51.068;5.860;2022-11-20T03:48:24;4.90;79.03
65058;HTU21D;51644;51.068;5.860;2022-11-20T03:49:26;4.91;79.10
65058;HTU21D;51644;51.068;5.860;2022-11-20T03:50:24;4.90;79.17
65058;HTU21D;51644;51.068;5.860;2022-11-20T03:51:25;4.90;79.17
65058;HTU21D;51644;51.068;5.860;2022-11-20T03:52:26;4.91;79.21
65058;HTU21D;51644;51.068;5.860;2022-11-20T03:53:25;4.91;79.24
65058;HTU21D;51644;51.068;5.860;2022-11-20T03:54:24;4.93;79.30
65058;HTU21D;51644;51.068;5.860;2022-11-20T03:55:22;4.93;79.34
65058;HTU21D;51644;51.068;5.860;2022-11-20T03:56:26;4.92;79.43
65058;HTU21D;51644;51.068;5.860;2022-11-20T03:57:27;4.93;79.28
65058;HTU21D;51644;51.068;5.860;2022-11-20T03:58:26;4.93;79.28
65058;HTU21D;51644;51.068;5.860;2022-11-20T03:59:24;4.93;79.24
65058;HTU21D;51644;51.068;5.860;2022-11-20T04:00:23;4.94;79.25
65058;HTU21D;51644;51.068;5.860;2022-11-20T04:01:24;4.97;79.25
65058;HTU21D;51644;51.068;5.860;2022-11-20T04:02:23;4.98;79.19
65058;HTU21D;51644;51.068;5.860;2022-11-20T04:03:22;4.98;79.21
65058;HTU21D;51644;51.068;5.860;2022-11-20T04:04:23;5.00;79.11
65058;HTU21D;51644;51.068;5.860;2022-11-20T04:05:21;5.00;79.08
65058;HTU21D;51644;51.068;5.860;2022-11-20T04:06:26;5.02;79.07
65058;HTU21D;51644;51.068;5.860;2022-11-20T04:07:28;5.01;78.97
65058;HTU21D;51644;51.068;5.860;2022-11-20T04:08:28;5.00;78.89
65058;HTU21D;51644;51.068;5.860;2022-11-20T04:09:27;4.98;78.96
65058;HTU21D;51644;51.068;5.860;2022-11-20T04:10:25;5.00;78.95
65058;HTU21D;51644;51.068;5.860;2022-11-20T04:11:25;5.01;78.89
65058;HTU21D;51644;51.068;5.860;2022-11-20T04:12:24;5.02;78.86
65058;HTU21D;51644;51.068;5.860;2022-11-20T04:13:23;5.03;78.85
65058;HTU21D;51644;51.068;5.860;2022-11-20T04:14:21;5.04;78.84
65058;HTU21D;51644;51.068;5.860;2022-11-20T04:15:20;5.03;78.79
65058;HTU21D;51644;51.068;5.860;2022-11-20T04:16:22;5.03;78.78
65058;HTU21D;51644;51.068;5.860;2022-11-20T04:17:24;5.02;78.79
65058;HTU21D;51644;51.068;5.860;2022-11-20T04:18:22;5.04;78.73
65058;HTU21D;51644;51.068;5.860;2022-11-20T04:19:26;5.04;78.72
65058;HTU21D;51644;51.068;5.860;2022-11-20T04:20:24;5.04;78.72
65058;HTU21D;51644;51.068;5.860;2022-11-20T04:21:24;5.04;78.72
65058;HTU21D;51644;51.068;5.860;2022-11-20T04:22:23;5.04;78.85
65058;HTU21D;51644;51.068;5.860;2022-11-20T04:23:21;5.06;78.93
65058;HTU21D;51644;51.068;5.860;2022-11-20T04:24:20;5.06;78.96
65058;HTU21D;51644;51.068;5.860;2022-11-20T04:25:19;5.07;78.95
65058;HTU21D;51644;51.068;5.860;2022-11-20T04:26:17;5.07;78.81
65058;HTU21D;51644;51.068;5.860;2022-11-20T04:27:16;5.07;78.76
65058;HTU21D;51644;51.068;5.860;2022-11-20T04:28:14;5.07;78.74
65058;HTU21D;51644;51.068;5.860;2022-11-20T04:29:13;5.06;78.88
65058;HTU21D;51644;51.068;5.860;2022-11-20T04:30:12;5.07;78.98
65058;HTU21D;51644;51.068;5.860;2022-11-20T04:31:13;5.06;79.09
65058;HTU21D;51644;51.068;5.860;2022-11-20T04:32:12;5.06;79.14
65058;HTU21D;51644;51.068;5.860;2022-11-20T04:33:10;5.06;79.20
65058;HTU21D;51644;51.068;5.860;2022-11-20T04:34:11;5.07;79.04
65058;HTU21D;51644;51.068;5.860;2022-11-20T04:35:09;5.07;79.07
65058;HTU21D;51644;51.068;5.860;2022-11-20T04:36:16;5.08;79.07
65058;HTU21D;51644;51.068;5.860;2022-11-20T04:37:16;5.06;78.93
65058;HTU21D;51644;51.068;5.860;2022-11-20T04:38:17;5.08;78.90
65058;HTU21D;51644;51.068;5.860;2022-11-20T04:39:16;5.07;78.92
65058;HTU21D;51644;51.068;5.860;2022-11-20T04:40:15;5.06;78.84
65058;HTU21D;51644;51.068;5.860;2022-11-20T04:41:19;5.04;78.83
65058;HTU21D;51644;51.068;5.860;2022-11-20T04:42:18;5.01;78.80
65058;HTU21D;51644;51.068;5.860;2022-11-20T04:43:33;5.00;78.77
65058;HTU21D;51644;51.068;5.860;2022-11-20T04:44:32;4.98;78.83
65058;HTU21D;51644;51.068;5.860;2022-11-20T04:45:31;5.00;78.94
65058;HTU21D;51644;51.068;5.860;2022-11-20T04:46:31;5.01;79.05
65058;HTU21D;51644;51.068;5.860;2022-11-20T04:47:33;5.01;79.14
65058;HTU21D;51644;51.068;5.860;2022-11-20T04:48:31;5.00;79.11
65058;HTU21D;51644;51.068;5.860;2022-11-20T04:49:30;5.00;79.10
65058;HTU21D;51644;51.068;5.860;2022-11-20T04:50:29;4.98;79.17
65058;HTU21D;51644;51.068;5.860;2022-11-20T04:51:28;4.98;79.25
65058;HTU21D;51644;51.068;5.860;2022-11-20T04:52:27;4.98;79.37
65058;HTU21D;51644;51.068;5.860;2022-11-20T04:53:25;5.01;79.46
65058;HTU21D;51644;51.068;5.860;2022-11-20T04:54:24;5.02;79.47
65058;HTU21D;51644;51.068;5.860;2022-11-20T04:55:23;5.04;79.40
65058;HTU21D;51644;51.068;5.860;2022-11-20T04:56:21;5.03;79.30
65058;HTU21D;51644;51.068;5.860;2022-11-20T04:57:21;5.00;79.23
65058;HTU21D;51644;51.068;5.860;2022-11-20T04:58:19;4.98;79.21
65058;HTU21D;51644;51.068;5.860;2022-11-20T04:59:18;4.97;79.23
65058;HTU21D;51644;51.068;5.860;2022-11-20T05:00:16;4.96;79.24
65058;HTU21D;51644;51.068;5.860;2022-11-20T05:01:25;4.96;79.27
65058;HTU21D;51644;51.068;5.860;2022-11-20T05:02:24;4.97;79.16
65058;HTU21D;51644;51.068;5.860;2022-11-20T05:03:22;4.98;79.09
65058;HTU21D;51644;51.068;5.860;2022-11-20T05:04:21;5.01;79.00
65058;HTU21D;51644;51.068;5.860;2022-11-20T05:05:20;5.01;78.93
65058;HTU21D;51644;51.068;5.860;2022-11-20T05:06:21;5.03;78.75
65058;HTU21D;51644;51.068;5.860;2022-11-20T05:07:19;5.05;78.69
65058;HTU21D;51644;51.068;5.860;2022-11-20T05:08:18;5.08;78.60
65058;HTU21D;51644;51.068;5.860;2022-11-20T05:09:16;5.10;78.50
65058;HTU21D;51644;51.068;5.860;2022-11-20T05:10:21;5.11;78.35
65058;HTU21D;51644;51.068;5.860;2022-11-20T05:11:21;5.12;78.18
65058;HTU21D;51644;51.068;5.860;2022-11-20T05:12:19;5.15;78.13
65058;HTU21D;51644;51.068;5.860;2022-11-20T05:13:18;5.16;78.18
65058;HTU21D;51644;51.068;5.860;2022-11-20T05:14:16;5.16;78.23
65058;HTU21D;51644;51.068;5.860;2022-11-20T05:15:15;5.15;78.34
65058;HTU21D;51644;51.068;5.860;2022-11-20T05:16:19;5.16;78.34
65058;HTU21D;51644;51.068;5.860;2022-11-20T05:17:18;5.17;78.21
65058;HTU21D;51644;51.068;5.860;2022-11-20T05:18:16;5.18;78.07
65058;HTU21D;51644;51.068;5.860;2022-11-20T05:19:18;5.17;78.08
65058;HTU21D;51644;51.068;5.860;2022-11-20T05:20:17;5.19;78.11
65058;HTU21D;51644;51.068;5.860;2022-11-20T05:21:16;5.20;78.16
65058;HTU21D;51644;51.068;5.860;2022-11-20T05:22:15;5.21;78.20
65058;HTU21D;51644;51.068;5.860;2022-11-20T05:23:14;5.20;78.16
65058;HTU21D;51644;51.068;5.860;2022-11-20T05:24:12;5.22;78.10
65058;HTU21D;51644;51.068;5.860;2022-11-20T05:25:12;5.23;78.14
65058;HTU21D;51644;51.068;5.860;2022-11-20T05:26:16;5.22;78.14
65058;HTU21D;51644;51.068;5.860;2022-11-20T05:27:16;5.22;78.23
65058;HTU21D;51644;51.068;5.860;2022-11-20T05:28:14;5.22;78.26
65058;HTU21D;51644;51.068;5.860;2022-11-20T05:29:13;5.20;78.23
65058;HTU21D;51644;51.068;5.860;2022-11-20T05:30:13;5.18;78.31
65058;HTU21D;51644;51.068;5.860;2022-11-20T05:31:18;5.18;78.41
65058;HTU21D;51644;51.068;5.860;2022-11-20T05:32:17;5.17;78.54
65058;HTU21D;51644;51.068;5.860;2022-11-20T05:33:16;5.17;78.59
65058;HTU21D;51644;51.068;5.860;2022-11-20T05:34:15;5.17;78.59
65058;HTU21D;51644;51.068;5.860;2022-11-20T05:35:14;5.16;78.59
65058;HTU21D;51644;51.068;5.860;2022-11-20T05:36:14;5.16;78.56
65058;HTU21D;51644;51.068;5.860;2022-11-20T05:37:12;5.16;78.59
65058;HTU21D;51644;51.068;5.860;2022-11-20T05:38:11;5.16;78.63
65058;HTU21D;51644;51.068;5.860;2022-11-20T05:39:10;5.17;78.53
65058;HTU21D;51644;51.068;5.860;2022-11-20T05:40:09;5.17;78.52
65058;HTU21D;51644;51.068;5.860;2022-11-20T05:41:09;5.18;78.43
65058;HTU21D;51644;51.068;5.860;2022-11-20T05:42:08;5.18;78.35
65058;HTU21D;51644;51.068;5.860;2022-11-20T05:43:25;5.17;78.33
65058;HTU21D;51644;51.068;5.860;2022-11-20T05:44:24;5.17;78.18
65058;HTU21D;51644;51.068;5.860;2022-11-20T05:45:22;5.17;78.07
65058;HTU21D;51644;51.068;5.860;2022-11-20T05:46:21;5.16;78.08
65058;HTU21D;51644;51.068;5.860;2022-11-20T05:47:20;5.15;78.23
65058;HTU21D;51644;51.068;5.860;2022-11-20T05:48:18;5.12;78.22
65058;HTU21D;51644;51.068;5.860;2022-11-20T05:49:17;5.10;78.13
65058;HTU21D;51644;51.068;5.860;2022-11-20T05:50:15;5.06;78.14
65058;HTU21D;51644;51.068;5.860;2022-11-20T05:51:17;5.02;78.36
65058;HTU21D;51644;51.068;5.860;2022-11-20T05:52:16;4.98;78.46
65058;HTU21D;51644;51.068;5.860;2022-11-20T05:53:15;4.95;78.56
65058;HTU21D;51644;51.068;5.860;2022-11-20T05:54:13;4.93;78.70
65058;HTU21D;51644;51.068;5.860;2022-11-20T05:55:12;4.92;78.77
65058;HTU21D;51644;51.068;5.860;2022-11-20T05:56:14;4.90;78.91
65058;HTU21D;51644;51.068;5.860;2022-11-20T05:57:13;4.89;78.97
65058;HTU21D;51644;51.068;5.860;2022-11-20T05:58:11;4.87;78.99
65058;HTU21D;51644;51.068;5.860;2022-11-20T05:59:10;4.86;79.01
65058;HTU21D;51644;51.068;5.860;2022-11-20T06:00:09;4.86;79.04
65058;HTU21D;51644;51.068;5.860;2022-11-20T06:01:30;4.83;79.11
65058;HTU21D;51644;51.068;5.860;2022-11-20T06:02:28;4.81;79.11
65058;HTU21D;51644;51.068;5.860;2022-11-20T06:03:27;4.79;79.20
65058;HTU21D;51644;51.068;5.860;2022-11-20T06:04:25;4.74;79.21
65058;HTU21D;51644;51.068;5.860;2022-11-20T06:05:24;4.75;79.23
65058;HTU21D;51644;51.068;5.860;2022-11-20T06:06:22;4.76;79.25
65058;HTU21D;51644;51.068;5.860;2022-11-20T06:07:21;4.77;79.37
65058;HTU21D;51644;51.068;5.860;2022-11-20T06:08:22;4.77;79.40
65058;HTU21D;51644;51.068;5.860;2022-11-20T06:09:23;4.78;79.40
65058;HTU21D;51644;51.068;5.860;2022-11-20T06:10:22;4.81;79.35
65058;HTU21D;51644;51.068;5.860;2022-11-20T06:11:23;4.82;79.36
65058;HTU21D;51644;51.068;5.860;2022-11-20T06:12:35;4.87;79.24
65058;HTU21D;51644;51.068;5.860;2022-11-20T06:13:34;4.87;79.22
65058;HTU21D;51644;51.068;5.860;2022-11-20T06:14:33;4.90;79.04
65058;HTU21D;51644;51.068;5.860;2022-11-20T06:15:32;4.87;79.11
65058;HTU21D;51644;51.068;5.860;2022-11-20T06:16:30;4.87;79.04
65058;HTU21D;51644;51.068;5.860;2022-11-20T06:17:29;4.88;78.97
65058;HTU21D;51644;51.068;5.860;2022-11-20T06:18:29;4.87;79.00
65058;HTU21D;51644;51.068;5.860;2022-11-20T06:19:27;4.88;78.96
65058;HTU21D;51644;51.068;5.860;2022-11-20T06:20:26;4.90;79.01
65058;HTU21D;51644;51.068;5.860;2022-11-20T06:21:25;4.88;79.08
65058;HTU21D;51644;51.068;5.860;2022-11-20T06:22:24;4.88;79.18
65058;HTU21D;51644;51.068;5.860;2022-11-20T06:23:23;4.89;79.13
65058;HTU21D;51644;51.068;5.860;2022-11-20T06:24:21;4.89;79.25
65058;HTU21D;51644;51.068;5.860;2022-11-20T06:25:21;4.86;79.38
65058;HTU21D;51644;51.068;5.860;2022-11-20T06:26:22;4.87;79.41
65058;HTU21D;51644;51.068;5.860;2022-11-20T06:27:21;4.87;79.46
65058;HTU21D;51644;51.068;5.860;2022-11-20T06:28:19;4.87;79.51
65058;HTU21D;51644;51.068;5.860;2022-11-20T06:29:18;4.87;79.56
65058;HTU21D;51644;51.068;5.860;2022-11-20T06:30:16;4.89;79.60
65058;HTU21D;51644;51.068;5.860;2022-11-20T06:31:18;4.92;79.70